createdAt,value
2019-03-30T00:00:00.254Z,12.47
2019-03-30T00:02:35.894Z,11.97
2019-03-30T00:05:07.383Z,10.82
2019-03-30T00:07:38.166Z,10.28
2019-03-30T00:10:07.863Z,11.22
2019-03-30T00:12:43.354Z,11.00
2019-03-30T00:15:13.087Z,10.85
2019-03-30T00:17:46.466Z,9.15
2019-03-30T00:20:16.579Z,11.20
2019-03-30T00:22:52.578Z,10.15
2019-03-30T00:25:22.754Z,10.70
2019-03-30T00:27:52.959Z,10.00
2019-03-30T00:30:24.038Z,9.75
2019-03-30T00:32:53.878Z,9.75
2019-03-30T00:35:24.731Z,8.75
2019-03-30T00:38:01.922Z,9.00
2019-03-30T00:40:31.761Z,9.58
2019-03-30T00:43:02.350Z,9.40
2019-03-30T00:45:32.305Z,8.90
2019-03-30T00:48:02.385Z,8.33
2019-03-30T00:50:33.109Z,8.68
2019-03-30T00:53:02.794Z,8.80
2019-03-30T00:55:33.641Z,8.60
2019-03-30T00:58:03.783Z,8.75
2019-03-30T01:00:33.681Z,8.98
2019-03-30T01:03:09.538Z,7.97
2019-03-30T01:05:39.403Z,8.38
2019-03-30T01:08:11.299Z,8.45
2019-03-30T01:10:41.399Z,8.35
2019-03-30T01:13:11.217Z,9.43
2019-03-30T01:15:41.245Z,9.13
2019-03-30T01:18:11.355Z,8.95
2019-03-30T01:20:50.354Z,9.33
2019-03-30T01:23:20.177Z,8.08
2019-03-30T01:25:50.125Z,7.97
2019-03-30T01:28:21.141Z,8.80
2019-03-30T01:30:50.945Z,9.35
2019-03-30T01:33:21.161Z,9.65
2019-03-30T01:35:51.359Z,8.45
2019-03-30T01:38:21.172Z,9.35
2019-03-30T01:40:50.901Z,10.08
2019-03-30T01:43:20.854Z,9.30
2019-03-30T01:45:50.677Z,8.85
2019-03-30T01:48:20.638Z,8.83
2019-03-30T01:50:56.591Z,8.78
2019-03-30T01:53:29.696Z,8.18
2019-03-30T01:55:59.496Z,10.20
2019-03-30T01:58:29.455Z,9.65
2019-03-30T02:00:59.292Z,8.88
2019-03-30T02:03:29.881Z,9.60
2019-03-30T02:06:15.021Z,8.98
2019-03-30T02:08:46.030Z,8.70
2019-03-30T02:11:15.861Z,8.93
2019-03-30T02:13:45.828Z,8.38
2019-03-30T02:16:15.929Z,8.95
2019-03-30T02:18:46.912Z,9.23
2019-03-30T02:21:17.017Z,9.13
2019-03-30T02:23:52.616Z,8.65
2019-03-30T02:26:22.609Z,9.63
2019-03-30T02:28:53.364Z,9.80
2019-03-30T02:31:23.949Z,10.88
2019-03-30T02:33:59.861Z,9.45
2019-03-30T02:36:32.748Z,9.28
2019-03-30T02:39:20.984Z,9.13
2019-03-30T02:41:51.097Z,8.98
2019-03-30T02:44:21.022Z,10.38
2019-03-30T02:46:54.621Z,9.58
2019-03-30T02:49:24.533Z,9.40
2019-03-30T02:51:54.243Z,9.45
2019-03-30T02:54:24.204Z,10.58
2019-03-30T02:56:54.024Z,9.05
2019-03-30T02:59:23.974Z,9.38
2019-03-30T03:01:54.753Z,8.20
2019-03-30T03:04:25.939Z,9.80
2019-03-30T03:07:01.050Z,10.43
2019-03-30T03:09:32.053Z,7.70
2019-03-30T03:12:02.486Z,10.95
2019-03-30T03:14:33.285Z,10.20
2019-03-30T03:17:03.010Z,8.88
2019-03-30T03:19:33.622Z,8.78
2019-03-30T03:22:12.609Z,9.28
2019-03-30T03:24:42.453Z,10.23
2019-03-30T03:27:12.418Z,10.13
2019-03-30T03:29:43.956Z,10.05
2019-03-30T03:32:13.654Z,10.72
2019-03-30T03:34:43.893Z,11.38
2019-03-30T03:37:15.964Z,11.12
2019-03-30T03:39:45.826Z,11.20
2019-03-30T03:42:15.795Z,10.00
2019-03-30T03:44:47.546Z,9.80
2019-03-30T03:47:17.422Z,9.60
2019-03-30T03:49:47.374Z,9.95
2019-03-30T03:52:17.811Z,12.37
2019-03-30T03:54:49.520Z,11.57
2019-03-30T03:57:22.310Z,9.63
2019-03-30T03:59:55.532Z,10.72
2019-03-30T04:02:29.844Z,9.88
2019-03-30T04:05:02.620Z,11.80
2019-03-30T04:07:33.998Z,11.03
2019-03-30T04:10:06.154Z,10.45
2019-03-30T04:12:37.522Z,11.03
2019-03-30T04:15:08.757Z,11.70
2019-03-30T04:17:38.509Z,10.88
2019-03-30T04:20:09.527Z,11.40
2019-03-30T04:22:45.239Z,12.28
2019-03-30T04:25:22.154Z,13.10
2019-03-30T04:27:56.453Z,12.18
2019-03-30T04:30:30.792Z,11.28
2019-03-30T04:33:02.624Z,12.10
2019-03-30T04:35:32.357Z,13.83
2019-03-30T04:38:03.962Z,12.30
2019-03-30T04:40:35.596Z,12.30
2019-03-30T04:43:12.178Z,11.38
2019-03-30T04:45:44.053Z,11.70
2019-03-30T04:48:16.185Z,10.53
2019-03-30T04:50:51.981Z,13.35
2019-03-30T04:53:28.151Z,11.33
2019-03-30T04:55:58.273Z,12.82
2019-03-30T04:58:28.104Z,13.03
2019-03-30T05:00:58.754Z,12.85
2019-03-30T05:03:28.717Z,12.37
2019-03-30T05:06:01.795Z,13.25
2019-03-30T05:08:31.645Z,13.50
2019-03-30T05:11:01.625Z,12.18
2019-03-30T05:13:32.666Z,12.95
2019-03-30T05:16:08.581Z,14.58
2019-03-30T05:18:38.537Z,13.62
2019-03-30T05:21:08.655Z,13.32
2019-03-30T05:23:38.749Z,14.40
2019-03-30T05:26:12.460Z,13.75
2019-03-30T05:28:42.617Z,13.15
2019-03-30T05:31:12.743Z,14.07
2019-03-30T05:33:42.834Z,14.05
2019-03-30T05:36:14.899Z,14.93
2019-03-30T05:38:45.017Z,12.73
2019-03-30T05:41:25.802Z,13.60
2019-03-30T05:43:58.601Z,14.30
2019-03-30T05:46:28.698Z,14.20
2019-03-30T05:48:58.801Z,15.45
2019-03-30T05:51:31.569Z,14.05
2019-03-30T05:54:01.458Z,15.35
2019-03-30T05:56:32.359Z,16.45
2019-03-30T05:59:09.437Z,17.42
2019-03-30T06:01:51.382Z,16.77
2019-03-30T06:04:22.245Z,16.52
2019-03-30T06:06:52.341Z,16.80
2019-03-30T06:09:22.438Z,19.15
2019-03-30T06:11:52.308Z,17.75
2019-03-30T06:14:23.238Z,20.32
2019-03-30T06:16:53.069Z,18.85
2019-03-30T06:19:25.013Z,16.85
2019-03-30T06:21:56.834Z,19.85
2019-03-30T06:24:26.806Z,20.02
2019-03-30T06:27:01.816Z,19.13
2019-03-30T06:29:31.770Z,21.53
2019-03-30T06:32:02.889Z,21.63
2019-03-30T06:34:33.673Z,22.20
2019-03-30T06:37:04.369Z,23.10
2019-03-30T06:39:37.430Z,22.23
2019-03-30T06:42:07.521Z,22.37
2019-03-30T06:44:43.610Z,25.13
2019-03-30T06:47:13.705Z,23.67
2019-03-30T06:49:50.597Z,25.10
2019-03-30T06:52:20.687Z,22.00
2019-03-30T06:54:56.785Z,22.20
2019-03-30T06:57:34.869Z,20.80
2019-03-30T07:00:14.481Z,21.80
2019-03-30T07:02:53.477Z,20.10
2019-03-30T07:05:24.629Z,19.57
2019-03-30T07:07:55.988Z,19.27
2019-03-30T07:10:26.154Z,17.33
2019-03-30T07:12:58.350Z,18.50
2019-03-30T07:15:30.637Z,16.37
2019-03-30T07:18:02.877Z,16.00
2019-03-30T07:20:32.573Z,16.00
2019-03-30T07:23:12.354Z,16.23
2019-03-30T07:25:40.136Z,14.60
2019-03-30T07:28:10.232Z,15.50
2019-03-30T07:30:40.366Z,15.00
2019-03-30T07:33:11.462Z,15.97
2019-03-30T07:35:44.751Z,15.57
2019-03-30T07:38:20.827Z,14.80
2019-03-30T07:40:50.662Z,15.40
2019-03-30T07:43:24.106Z,16.27
2019-03-30T07:45:56.417Z,15.70
2019-03-30T07:48:26.384Z,16.43
2019-03-30T07:50:58.479Z,15.20
2019-03-30T07:53:28.597Z,16.23
2019-03-30T07:56:08.684Z,17.00
2019-03-30T07:58:35.193Z,15.27
2019-03-30T08:01:15.157Z,16.17
2019-03-30T08:03:45.266Z,14.97
2019-03-30T08:06:16.312Z,15.33
2019-03-30T08:08:46.437Z,15.80
2019-03-30T08:11:16.562Z,16.50
2019-03-30T08:13:46.672Z,15.40
2019-03-30T08:16:17.011Z,14.70
2019-03-30T08:18:48.113Z,13.60
2019-03-30T08:21:19.157Z,14.67
2019-03-30T08:23:55.101Z,15.57
2019-03-30T08:26:25.217Z,14.50
2019-03-30T08:28:55.051Z,15.87
2019-03-30T08:31:28.922Z,15.87
2019-03-30T08:33:58.906Z,14.97
2019-03-30T08:36:30.001Z,15.87
2019-03-30T08:39:01.969Z,14.93
2019-03-30T08:41:31.801Z,15.47
2019-03-30T08:44:07.254Z,14.97
2019-03-30T08:46:37.085Z,14.23
2019-03-30T08:49:07.048Z,14.30
2019-03-30T08:51:38.081Z,14.87
2019-03-30T08:54:09.937Z,15.97
2019-03-30T08:56:41.557Z,14.00
2019-03-30T08:59:11.509Z,14.33
2019-03-30T09:01:41.370Z,14.27
2019-03-30T09:04:12.017Z,15.40
2019-03-30T09:06:41.750Z,15.73
2019-03-30T09:09:11.953Z,15.20
2019-03-30T09:11:43.455Z,14.50
2019-03-30T09:14:13.467Z,13.97
2019-03-30T09:16:43.305Z,14.60
2019-03-30T09:19:13.013Z,13.50
2019-03-30T09:21:42.717Z,14.87
2019-03-30T09:24:12.705Z,14.17
2019-03-30T09:26:49.801Z,14.20
2019-03-30T09:29:21.631Z,13.80
2019-03-30T09:31:51.326Z,13.87
2019-03-30T09:34:21.013Z,14.13
2019-03-30T09:36:50.856Z,13.50
2019-03-30T09:39:21.654Z,14.70
2019-03-30T09:41:51.370Z,14.43
2019-03-30T09:44:21.337Z,14.73
2019-03-30T09:46:55.803Z,12.80
2019-03-30T09:49:25.608Z,13.03
2019-03-30T09:51:56.170Z,12.53
2019-03-30T09:54:27.757Z,13.73
2019-03-30T09:56:57.731Z,15.30
2019-03-30T09:59:28.724Z,15.80
2019-03-30T10:01:59.806Z,13.93
2019-03-30T10:04:30.792Z,13.47
2019-03-30T10:07:00.650Z,14.50
2019-03-30T10:09:30.606Z,14.23
2019-03-30T10:12:11.814Z,15.40
2019-03-30T10:14:41.251Z,14.53
2019-03-30T10:17:11.887Z,13.93
2019-03-30T10:19:42.545Z,14.60
2019-03-30T10:22:12.247Z,14.97
2019-03-30T10:24:41.926Z,15.17
2019-03-30T10:27:11.661Z,13.57
2019-03-30T10:29:41.854Z,14.93
2019-03-30T10:32:11.716Z,15.63
2019-03-30T10:34:41.405Z,15.00
2019-03-30T10:37:12.391Z,15.37
2019-03-30T10:39:42.229Z,14.80
2019-03-30T10:42:12.878Z,15.73
2019-03-30T10:44:42.610Z,14.83
2019-03-30T10:47:18.034Z,14.20
2019-03-30T10:49:48.797Z,14.00
2019-03-30T10:52:18.501Z,13.73
2019-03-30T10:54:52.924Z,15.47
2019-03-30T10:57:21.786Z,15.10
2019-03-30T10:59:51.901Z,15.23
2019-03-30T11:02:22.006Z,15.10
2019-03-30T11:04:52.842Z,13.97
2019-03-30T11:07:22.805Z,15.40
2019-03-30T11:09:52.909Z,15.60
2019-03-30T11:12:22.757Z,15.90
2019-03-30T11:14:53.349Z,14.30
2019-03-30T11:17:23.335Z,11.03
2019-03-30T11:19:53.440Z,11.90
2019-03-30T11:22:28.987Z,11.30
2019-03-30T11:25:07.448Z,11.63
2019-03-30T11:27:30.517Z,12.20
2019-03-30T11:30:00.362Z,12.03
2019-03-30T11:32:30.365Z,10.47
2019-03-30T11:35:00.474Z,11.17
2019-03-30T11:37:30.408Z,13.43
2019-03-30T11:40:01.076Z,11.50
2019-03-30T11:42:30.765Z,11.03
2019-03-30T11:45:00.758Z,10.33
2019-03-30T11:47:30.609Z,11.63
2019-03-30T11:50:00.586Z,10.70
2019-03-30T11:52:30.847Z,11.50
2019-03-30T11:55:00.809Z,11.13
2019-03-30T11:57:30.649Z,10.80
2019-03-30T12:00:00.622Z,11.60
2019-03-30T12:02:30.477Z,10.60
2019-03-30T12:05:00.506Z,9.07
2019-03-30T12:07:30.286Z,7.57
2019-03-30T12:09:59.985Z,8.00
2019-03-30T12:12:29.665Z,7.77
2019-03-30T12:14:59.621Z,8.60
2019-03-30T12:17:29.725Z,7.57
2019-03-30T12:19:59.572Z,7.90
2019-03-30T12:22:29.533Z,8.47
2019-03-30T12:24:59.364Z,9.50
2019-03-30T12:27:29.961Z,8.80
2019-03-30T12:29:59.709Z,9.07
2019-03-30T12:32:30.369Z,7.30
2019-03-30T12:35:00.347Z,8.40
2019-03-30T12:37:30.302Z,8.60
2019-03-30T12:40:00.348Z,9.40
2019-03-30T12:42:30.165Z,9.30
2019-03-30T12:44:59.898Z,8.93
2019-03-30T12:47:29.590Z,8.53
2019-03-30T12:50:00.642Z,7.67
2019-03-30T12:52:30.471Z,6.57
2019-03-30T12:55:00.682Z,6.60
2019-03-30T12:57:31.301Z,7.47
2019-03-30T13:00:09.844Z,7.73
2019-03-30T13:02:39.534Z,7.00
2019-03-30T13:05:09.358Z,7.50
2019-03-30T13:07:39.317Z,7.10
2019-03-30T13:10:10.273Z,7.70
2019-03-30T13:12:39.974Z,8.67
2019-03-30T13:15:10.035Z,7.57
2019-03-30T13:17:40.000Z,8.53
2019-03-30T13:20:10.494Z,8.70
2019-03-30T13:22:40.622Z,8.63
2019-03-30T13:25:10.513Z,8.77
2019-03-30T13:27:40.564Z,9.17
2019-03-30T13:30:11.247Z,9.90
2019-03-30T13:32:42.103Z,7.33
2019-03-30T13:35:12.006Z,7.90
2019-03-30T13:37:41.688Z,8.03
2019-03-30T13:40:12.498Z,7.73
2019-03-30T13:42:42.182Z,7.90
2019-03-30T13:45:17.797Z,7.27
2019-03-30T13:47:48.387Z,8.43
2019-03-30T13:50:18.098Z,8.20
2019-03-30T13:52:48.122Z,9.40
2019-03-30T13:55:19.098Z,8.07
2019-03-30T13:57:52.992Z,8.33
2019-03-30T14:00:27.890Z,8.03
2019-03-30T14:02:58.002Z,8.47
2019-03-30T14:05:27.846Z,7.30
2019-03-30T14:07:57.794Z,8.40
2019-03-30T14:10:29.551Z,8.70
2019-03-30T14:12:59.226Z,8.33
2019-03-30T14:15:28.934Z,8.33
2019-03-30T14:18:01.611Z,7.10
2019-03-30T14:20:31.302Z,7.77
2019-03-30T14:23:01.004Z,8.10
2019-03-30T14:25:30.687Z,7.00
2019-03-30T14:28:00.672Z,7.70
2019-03-30T14:30:30.494Z,7.07
2019-03-30T14:33:01.354Z,7.93
2019-03-30T14:35:31.186Z,7.03
2019-03-30T14:38:03.094Z,8.13
2019-03-30T14:40:34.092Z,6.63
2019-03-30T14:43:03.947Z,6.80
2019-03-30T14:45:33.635Z,6.77
2019-03-30T14:48:03.324Z,7.00
2019-03-30T14:50:33.034Z,7.50
2019-03-30T14:53:02.766Z,7.10
2019-03-30T14:55:32.537Z,6.40
2019-03-30T14:58:03.962Z,5.87
2019-03-30T15:00:34.246Z,6.17
2019-03-30T15:03:04.074Z,6.17
2019-03-30T15:05:34.053Z,5.77
2019-03-30T15:08:09.714Z,7.37
2019-03-30T15:10:39.410Z,6.07
2019-03-30T15:13:09.114Z,7.37
2019-03-30T15:15:39.070Z,7.77
2019-03-30T15:18:09.177Z,7.20
2019-03-30T15:20:40.840Z,7.30
2019-03-30T15:23:11.542Z,7.03
2019-03-30T15:25:41.250Z,6.90
2019-03-30T15:28:11.220Z,7.90
2019-03-30T15:30:42.292Z,8.70
2019-03-30T15:33:13.072Z,7.83
2019-03-30T15:35:43.030Z,7.90
2019-03-30T15:38:12.882Z,7.73
2019-03-30T15:40:50.942Z,9.07
2019-03-30T15:43:21.031Z,7.33
2019-03-30T15:45:51.134Z,7.17
2019-03-30T15:48:21.246Z,6.03
2019-03-30T15:50:51.130Z,6.07
2019-03-30T15:53:21.128Z,8.40
2019-03-30T15:55:51.230Z,6.87
2019-03-30T15:58:24.162Z,7.60
2019-03-30T16:00:58.422Z,7.90
2019-03-30T16:03:28.258Z,14.90
2019-03-30T16:05:59.474Z,24.80
2019-03-30T16:08:29.298Z,7.40
2019-03-30T16:11:02.350Z,7.50
2019-03-30T16:13:35.471Z,6.00
2019-03-30T16:16:06.450Z,9.07
2019-03-30T16:18:39.474Z,7.70
2019-03-30T16:21:11.468Z,8.67
2019-03-30T16:23:41.598Z,8.13
2019-03-30T16:26:11.720Z,7.03
2019-03-30T16:28:43.710Z,8.20
2019-03-30T16:31:13.874Z,11.40
2019-03-30T16:33:46.752Z,8.17
2019-03-30T16:36:18.428Z,9.50
2019-03-30T16:38:48.262Z,7.37
2019-03-30T16:41:18.238Z,7.27
2019-03-30T16:43:54.302Z,7.77
2019-03-30T16:46:30.285Z,8.17
2019-03-30T16:49:08.456Z,6.40
2019-03-30T16:51:39.466Z,5.87
2019-03-30T16:54:09.644Z,7.30
2019-03-30T16:56:39.566Z,7.53
2019-03-30T16:59:09.538Z,7.43
2019-03-30T17:01:39.642Z,7.33
2019-03-30T17:04:09.766Z,9.70
2019-03-30T17:06:39.882Z,9.03
2019-03-30T17:09:11.978Z,8.30
2019-03-30T17:11:42.098Z,8.27
2019-03-30T17:14:11.926Z,8.67
2019-03-30T17:16:46.714Z,9.80
2019-03-30T17:19:17.318Z,10.57
2019-03-30T17:21:47.274Z,9.73
2019-03-30T17:24:17.760Z,10.90
2019-03-30T17:26:47.882Z,7.83
2019-03-30T17:29:18.738Z,7.80
2019-03-30T17:34:40.366Z,7.23
2019-03-30T17:37:10.087Z,6.40
2019-03-30T17:39:40.038Z,5.47
2019-03-30T17:42:10.213Z,6.40
2019-03-30T17:44:40.327Z,9.43
2019-03-30T17:47:11.318Z,10.47
2019-03-30T17:49:42.122Z,12.63
2019-03-30T17:52:11.822Z,14.47
2019-03-30T17:54:46.934Z,11.53
2019-03-30T17:57:17.634Z,8.70
2019-03-30T17:59:47.630Z,6.30
2019-03-30T18:02:17.594Z,10.77
2019-03-30T18:04:47.706Z,10.40
2019-03-30T18:07:17.538Z,9.43
2019-03-30T18:09:47.507Z,9.07
2019-03-30T18:12:20.421Z,8.30
2019-03-30T18:14:50.394Z,5.90
2019-03-30T18:17:24.500Z,5.53
2019-03-30T18:19:55.510Z,5.50
2019-03-30T18:22:25.182Z,7.00
2019-03-30T18:24:55.141Z,6.47
2019-03-30T18:27:30.198Z,5.90
2019-03-30T18:30:01.019Z,6.90
2019-03-30T18:32:31.491Z,7.00
2019-03-30T18:35:02.162Z,6.43
2019-03-30T18:37:36.488Z,6.57
2019-03-30T18:40:08.658Z,7.43
2019-03-30T18:42:41.489Z,7.27
2019-03-30T18:45:14.270Z,7.17
2019-03-30T18:47:43.951Z,8.80
2019-03-30T18:50:14.950Z,7.60
2019-03-30T18:52:46.402Z,8.50
2019-03-30T18:55:21.212Z,11.07
2019-03-30T18:57:51.050Z,10.80
2019-03-30T19:00:27.502Z,9.50
2019-03-30T19:03:05.542Z,10.03
2019-03-30T19:05:37.287Z,11.07
2019-03-30T19:08:07.078Z,6.50
2019-03-30T19:10:37.107Z,5.97
2019-03-30T19:13:07.200Z,6.13
2019-03-30T19:15:43.310Z,8.07
2019-03-30T19:18:14.372Z,8.50
2019-03-30T19:20:46.440Z,6.90
2019-03-30T19:23:16.272Z,7.10
2019-03-30T19:25:45.962Z,7.93
2019-03-30T19:28:15.644Z,6.83
2019-03-30T19:30:45.346Z,8.23
2019-03-30T19:33:17.451Z,11.93
2019-03-30T19:35:50.661Z,9.93
2019-03-30T19:38:20.477Z,15.10
2019-03-30T19:40:50.434Z,17.67
2019-03-30T19:43:26.076Z,9.20
2019-03-30T19:45:56.062Z,8.47
2019-03-30T19:48:26.138Z,7.30
2019-03-30T19:50:56.246Z,7.53
2019-03-30T19:53:27.066Z,7.27
2019-03-30T19:56:03.906Z,7.43
2019-03-30T19:58:34.010Z,6.83
2019-03-30T20:01:04.239Z,7.57
2019-03-30T20:03:34.086Z,8.70
2019-03-30T20:06:04.890Z,6.70
2019-03-30T20:08:34.872Z,7.93
2019-03-30T20:11:05.030Z,7.63
2019-03-30T20:13:34.885Z,8.33
2019-03-30T20:16:04.614Z,9.17
2019-03-30T20:18:34.590Z,11.00
2019-03-30T20:21:11.375Z,10.20
2019-03-30T20:23:42.201Z,10.80
2019-03-30T20:26:12.196Z,10.20
2019-03-30T20:28:42.019Z,9.00
2019-03-30T20:31:11.702Z,9.27
2019-03-30T20:33:41.527Z,8.30
2019-03-30T20:36:11.478Z,8.70
2019-03-30T20:38:41.314Z,8.80
2019-03-30T20:41:10.998Z,9.43
2019-03-30T20:43:40.966Z,8.10
2019-03-30T20:46:10.833Z,8.90
2019-03-30T20:48:40.506Z,9.20
2019-03-30T20:51:18.742Z,10.30
2019-03-30T20:53:53.442Z,9.27
2019-03-30T20:56:29.335Z,10.10
2019-03-30T20:59:04.098Z,9.27
2019-03-30T21:01:33.917Z,8.23
2019-03-30T21:04:09.374Z,9.53
2019-03-30T21:06:40.254Z,8.13
2019-03-30T21:09:10.347Z,9.40
2019-03-30T21:11:40.174Z,8.93
2019-03-30T21:14:17.702Z,8.70
2019-03-30T21:16:47.569Z,8.53
2019-03-30T21:19:17.266Z,8.50
2019-03-30T21:21:47.467Z,9.43
2019-03-30T21:24:17.305Z,8.43
2019-03-30T21:26:47.033Z,7.83
2019-03-30T21:29:16.744Z,7.67
2019-03-30T21:31:49.100Z,8.30
2019-03-30T21:34:17.854Z,8.37
2019-03-30T21:36:51.673Z,7.70
2019-03-30T21:39:23.590Z,7.50
2019-03-30T21:41:53.414Z,8.43
2019-03-30T21:44:25.094Z,9.20
2019-03-30T21:46:55.068Z,8.30
2019-03-30T21:49:27.138Z,8.43
2019-03-30T21:51:57.086Z,9.57
2019-03-30T21:54:26.866Z,8.40
2019-03-30T21:56:56.556Z,9.37
2019-03-30T21:59:27.514Z,8.73
2019-03-30T22:01:57.634Z,9.15
2019-03-30T22:04:27.470Z,8.85
2019-03-30T22:06:58.782Z,9.10
2019-03-30T22:09:29.260Z,8.88
2019-03-30T22:12:04.817Z,8.60
2019-03-30T22:14:36.020Z,10.40
2019-03-30T22:17:06.134Z,10.60
2019-03-30T22:19:36.335Z,8.53
2019-03-30T22:22:06.437Z,9.65
2019-03-30T22:24:36.270Z,9.33
2019-03-30T22:27:06.618Z,9.47
2019-03-30T22:29:38.332Z,9.77
2019-03-30T22:32:08.013Z,9.60
2019-03-30T22:34:37.756Z,10.08
2019-03-30T22:37:08.459Z,9.30
2019-03-30T22:39:38.162Z,8.53
2019-03-30T22:42:08.108Z,10.32
2019-03-30T22:44:38.202Z,9.07
2019-03-30T22:47:09.922Z,9.53
2019-03-30T22:49:39.598Z,7.90
2019-03-30T22:52:09.590Z,8.48
2019-03-30T22:54:39.676Z,8.75
2019-03-30T22:57:14.434Z,9.80
2019-03-30T22:59:52.077Z,9.05
2019-03-30T23:02:22.050Z,8.85
2019-03-30T23:04:51.750Z,8.88
2019-03-30T23:07:21.718Z,8.18
2019-03-30T23:09:51.827Z,9.25
2019-03-30T23:12:22.966Z,8.93
2019-03-30T23:14:55.031Z,8.75
2019-03-30T23:17:25.135Z,8.60
2019-03-30T23:19:54.980Z,8.48
2019-03-30T23:22:24.947Z,8.80
2019-03-30T23:24:56.062Z,9.63
2019-03-30T23:27:28.074Z,8.50
2019-03-30T23:30:01.190Z,8.30
2019-03-30T23:32:31.042Z,8.10
2019-03-30T23:35:06.417Z,9.45
2019-03-30T23:37:36.884Z,8.65
2019-03-30T23:40:07.706Z,9.73
2019-03-30T23:42:37.470Z,9.20
2019-03-30T23:45:07.312Z,7.92
2019-03-30T23:47:37.026Z,7.90
2019-03-30T23:50:07.600Z,8.78
2019-03-30T23:52:37.298Z,8.85
2019-03-30T23:55:07.457Z,9.18
2019-03-30T23:57:37.557Z,8.88
